Time;durP1;ratioP1;P1;durP2;ratioP2;P2;SDS_P1;SDS_P2;PMS_P1;PMS_P2;Temp;Humidity;BMP_temperature;BMP_pressure;BME280_temperature;BME280_humidity;BME280_pressure;Samples;Min_cycle;Max_cycle;Signal;HPM_P1;HPM_P2
2021/11/02 00:00:24;;;;;;;4.22;3.22;;;6.00;99.90;;;;;;4942494;28;20062;-80
2021/11/02 00:02:50;;;;;;;5.53;3.42;;;6.10;99.90;;;;;;4942264;28;20055;-79
2021/11/02 00:05:17;;;;;;;7.18;3.42;;;6.00;99.90;;;;;;4958073;28;20063;-79
2021/11/02 00:07:46;;;;;;;5.95;3.53;;;6.00;99.90;;;;;;4948541;28;20393;-80
2021/11/02 00:10:12;;;;;;;7.85;3.53;;;6.00;99.90;;;;;;4977454;28;20043;-79
2021/11/02 00:12:37;;;;;;;12.15;3.85;;;6.10;99.90;;;;;;4976623;28;20121;-79
2021/11/02 00:15:04;;;;;;;7.43;4.45;;;6.10;99.90;;;;;;4977974;28;20432;-80
2021/11/02 00:17:31;;;;;;;5.80;3.80;;;6.10;99.90;;;;;;4977438;28;20046;-80
2021/11/02 00:20:00;;;;;;;10.10;4.50;;;6.20;99.90;;;;;;4960948;28;20564;-80
2021/11/02 00:22:27;;;;;;;8.30;4.18;;;6.10;99.90;;;;;;4977304;28;20046;-79
2021/11/02 00:27:20;;;;;;;7.20;4.43;;;6.10;99.90;;;;;;4976313;28;20054;-80
2021/11/02 00:29:46;;;;;;;9.18;4.50;;;6.50;99.90;;;;;;4961415;28;20592;-79
2021/11/02 00:32:12;;;;;;;8.25;4.43;;;6.20;99.90;;;;;;4977306;28;20088;-80
2021/11/02 00:34:38;;;;;;;7.20;4.40;;;6.20;99.90;;;;;;4977078;28;20038;-79
2021/11/02 00:37:04;;;;;;;8.02;4.15;;;6.20;99.90;;;;;;4977037;28;20061;-79
2021/11/02 00:39:29;;;;;;;7.70;4.78;;;6.40;99.90;;;;;;4977592;28;20057;-79
2021/11/02 00:41:55;;;;;;;6.80;4.32;;;6.20;99.90;;;;;;4976272;28;20046;-80
2021/11/02 00:44:22;;;;;;;9.00;4.53;;;6.30;99.90;;;;;;4977031;28;20038;-79
2021/11/02 00:46:50;;;;;;;8.25;5.00;;;6.20;99.90;;;;;;4963508;28;20121;-79
2021/11/02 00:49:17;;;;;;;8.35;4.40;;;6.30;99.90;;;;;;4957865;28;20043;-79
2021/11/02 00:51:44;;;;;;;7.72;4.93;;;6.20;99.90;;;;;;4941679;28;20054;-80
2021/11/02 00:54:11;;;;;;;15.02;6.32;;;6.30;99.90;;;;;;4941434;28;20062;-80
2021/11/02 00:56:36;;;;;;;11.50;4.82;;;6.30;99.90;;;;;;4960501;28;20125;-80
2021/11/02 00:59:03;;;;;;;7.57;5.00;;;6.30;99.90;;;;;;4959998;28;20118;-80
2021/11/02 01:01:28;;;;;;;10.48;5.22;;;6.30;99.90;;;;;;4975758;28;20444;-79
2021/11/02 01:03:54;;;;;;;6.20;4.88;;;6.40;99.90;;;;;;4976305;28;20141;-80
2021/11/02 01:06:20;;;;;;;9.85;5.78;;;6.40;99.90;;;;;;4976695;28;20137;-79
2021/11/02 01:08:45;;;;;;;8.52;5.57;;;6.40;99.90;;;;;;4961398;28;20051;-80
2021/11/02 01:11:13;;;;;;;8.82;5.13;;;6.40;99.90;;;;;;4941162;28;20077;-80
2021/11/02 01:13:38;;;;;;;12.30;5.22;;;6.40;99.90;;;;;;4940231;28;20106;-80
2021/11/02 01:16:04;;;;;;;11.13;5.57;;;6.40;99.90;;;;;;4957396;28;20054;-80
2021/11/02 01:18:30;;;;;;;9.00;5.78;;;6.30;99.90;;;;;;4941213;28;20051;-80
2021/11/02 01:20:57;;;;;;;10.98;5.70;;;6.30;99.90;;;;;;4957111;28;20089;-80
2021/11/02 01:23:23;;;;;;;11.90;6.13;;;6.30;99.90;;;;;;4957128;28;20128;-79
2021/11/02 01:25:49;;;;;;;9.98;6.00;;;6.30;99.90;;;;;;4941021;28;20047;-79
2021/11/02 01:28:15;;;;;;;8.88;5.88;;;6.30;99.90;;;;;;4956054;28;20101;-80
2021/11/02 01:30:43;;;;;;;11.20;6.13;;;6.20;99.90;;;;;;4957289;28;20478;-79
2021/11/02 01:33:09;;;;;;;9.45;5.63;;;6.20;99.90;;;;;;4956507;28;20046;-80
2021/11/02 01:35:34;;;;;;;10.50;6.20;;;6.20;99.90;;;;;;4974331;28;20466;-80
2021/11/02 01:38:03;;;;;;;10.68;6.22;;;6.20;99.90;;;;;;4956366;28;20481;-80
2021/11/02 01:40:29;;;;;;;12.32;6.25;;;6.20;99.90;;;;;;4941089;28;20055;-80
2021/11/02 01:42:55;;;;;;;11.13;6.72;;;6.10;99.90;;;;;;4956112;28;20142;-79
2021/11/02 01:45:24;;;;;;;13.63;7.28;;;6.10;99.90;;;;;;4956684;28;20051;-80
2021/11/02 01:47:50;;;;;;;14.07;6.80;;;6.10;99.90;;;;;;4956296;28;20490;-80
2021/11/02 01:50:15;;;;;;;10.57;7.15;;;6.10;99.90;;;;;;4940788;28;20045;-79
2021/11/02 01:52:41;;;;;;;10.85;7.30;;;6.10;99.90;;;;;;4940262;28;20320;-80
2021/11/02 01:55:11;;;;;;;9.50;7.25;;;6.20;99.90;;;;;;4940898;28;20046;-80
2021/11/02 01:57:37;;;;;;;10.85;7.25;;;6.10;99.90;;;;;;4955392;28;20047;-81
2021/11/02 02:00:07;;;;;;;14.85;7.82;;;6.10;99.90;;;;;;4956678;28;20042;-80
2021/11/02 02:03:05;;;;;;;15.82;8.35;;;6.00;99.90;;;;;;4940312;28;20042;-79
2021/11/02 02:05:50;;;;;;;10.85;7.55;;;6.10;99.90;;;;;;4876005;29;20061;-79
2021/11/02 02:08:34;;;;;;;14.30;8.23;;;6.10;99.90;;;;;;4860706;29;20064;-80
2021/11/02 02:11:17;;;;;;;15.50;8.13;;;6.10;99.90;;;;;;4861233;29;20358;-80
2021/11/02 02:14:26;;;;;;;17.20;8.52;;;6.10;99.90;;;;;;4844599;29;20041;-79
2021/11/02 02:16:53;;;;;;;13.88;8.20;;;6.10;99.90;;;;;;4805659;29;20107;-81
2021/11/02 02:19:22;;;;;;;13.95;8.40;;;6.10;99.90;;;;;;4805540;29;20077;-80
2021/11/02 02:22:16;;;;;;;15.30;8.60;;;6.20;99.90;;;;;;4805992;29;20069;-80
2021/11/02 02:25:01;;;;;;;13.65;9.30;;;6.10;99.90;;;;;;4792556;29;20085;-79
2021/11/02 02:27:50;;;;;;;19.77;9.88;;;6.10;99.90;;;;;;4804809;29;20160;-80
2021/11/02 02:30:17;;;;;;;16.05;10.02;;;6.10;99.90;;;;;;4788238;29;20058;-80
2021/11/02 02:32:47;;;;;;;16.02;9.55;;;6.00;99.90;;;;;;4805408;29;20042;-80
2021/11/02 02:35:14;;;;;;;12.63;9.40;;;6.00;99.90;;;;;;4805680;29;20118;-80
2021/11/02 02:37:42;;;;;;;15.35;10.07;;;6.00;99.90;;;;;;4805431;29;20391;-80
2021/11/02 02:40:09;;;;;;;14.95;10.35;;;6.00;99.90;;;;;;4805977;29;20042;-80
2021/11/02 02:42:37;;;;;;;18.83;10.82;;;6.00;99.90;;;;;;4838795;29;20053;-80
2021/11/02 02:45:05;;;;;;;15.30;10.43;;;6.50;99.90;;;;;;4842088;29;20136;-80
2021/11/02 02:47:32;;;;;;;14.40;10.07;;;6.00;99.90;;;;;;4875404;29;20045;-80
2021/11/02 02:49:59;;;;;;;14.02;10.00;;;6.00;99.90;;;;;;4871615;29;20055;-79
2021/11/02 02:52:28;;;;;;;17.20;11.35;;;6.00;99.90;;;;;;4936231;29;20055;-81
2021/11/02 02:54:55;;;;;;;18.10;11.15;;;6.00;99.90;;;;;;4936589;29;20058;-80
2021/11/02 02:57:23;;;;;;;16.52;10.30;;;6.00;99.90;;;;;;4935782;29;20071;-80
2021/11/02 02:59:50;;;;;;;18.95;10.93;;;6.20;99.90;;;;;;4936388;29;20062;-80
2021/11/02 03:02:20;;;;;;;16.77;10.45;;;6.00;99.90;;;;;;4920235;29;20131;-79
2021/11/02 03:04:48;;;;;;;13.55;10.10;;;6.00;99.90;;;;;;4935820;29;20057;-80
2021/11/02 03:07:15;;;;;;;17.58;10.93;;;5.90;99.90;;;;;;4920311;29;20058;-80
2021/11/02 03:09:42;;;;;;;16.85;10.52;;;6.20;99.90;;;;;;4920627;29;20062;-80
2021/11/02 03:12:10;;;;;;;16.55;10.70;;;5.90;99.90;;;;;;4935334;29;20098;-80
2021/11/02 03:17:31;;;;;;;16.92;10.60;;;5.90;99.90;;;;;;4912752;29;20519;-80
2021/11/02 03:56:01;;;;;;;15.18;10.48;;;5.60;99.90;;;;;;4976738;28;20053;-81
2021/11/02 04:23:44;;;;;;;15.55;10.27;;;5.50;99.90;;;;;;4937649;29;20126;-81
2021/11/02 04:48:00;;;;;;;20.00;10.85;;;5.40;99.90;;;;;;4957176;28;20572;-81
2021/11/02 05:09:52;;;;;;;21.33;13.02;;;5.90;99.90;;;;;;4942424;28;20085;-81
2021/11/02 05:54:22;;;;;;;27.45;14.55;;;5.30;99.90;;;;;;4925662;28;20493;-81
2021/11/02 05:57:00;;;;;;;31.60;14.07;;;5.30;99.90;;;;;;4940349;28;20108;-81
2021/11/02 06:11:26;;;;;;;30.85;16.27;;;5.30;99.90;;;;;;4890969;29;20154;-82
2021/11/02 06:28:18;;;;;;;38.20;19.60;;;5.50;99.90;;;;;;4931597;29;20079;-82
2021/11/02 06:30:58;;;;;;;36.08;19.42;;;5.40;99.90;;;;;;4917119;29;20060;-81
2021/11/02 06:50:48;;;;;;;;;;;5.70;99.90;;;;;;4876915;29;20061;-81
2021/11/02 07:16:34;;;;;;;43.17;23.00;;;6.20;99.90;;;;;;4860144;29;20060;-81
2021/11/02 07:19:37;;;;;;;46.08;22.58;;;6.20;99.90;;;;;;4844695;29;20053;-81
2021/11/02 07:24:43;;;;;;;41.58;23.33;;;6.30;99.90;;;;;;4860446;29;20457;-81
2021/11/02 08:45:25;;;;;;;40.67;24.20;;;7.20;99.90;;;;;;4955039;28;20047;-81
2021/11/02 08:47:58;;;;;;;43.58;24.65;;;7.20;99.90;;;;;;4957652;28;20039;-80
2021/11/02 08:50:24;;;;;;;39.22;23.27;;;7.60;99.90;;;;;;4941944;28;20054;-82
2021/11/02 08:52:51;;;;;;;39.92;24.40;;;7.30;99.90;;;;;;4957380;28;20046;-81
2021/11/02 08:55:18;;;;;;;36.72;23.63;;;7.30;99.90;;;;;;4941870;28;20073;-81
2021/11/02 08:57:47;;;;;;;38.13;23.05;;;7.30;99.90;;;;;;4956676;28;20520;-81
2021/11/02 09:00:13;;;;;;;37.58;23.40;;;7.40;99.90;;;;;;4941707;28;20043;-82
2021/11/02 09:02:48;;;;;;;38.97;23.55;;;7.50;99.90;;;;;;4957588;28;20051;-80
2021/11/02 09:05:18;;;;;;;39.97;24.30;;;7.50;99.90;;;;;;4957239;28;20042;-82
2021/11/02 09:07:45;;;;;;;34.15;22.98;;;7.50;99.90;;;;;;4941132;28;20561;-80
2021/11/02 09:10:15;;;;;;;36.20;22.50;;;7.60;99.90;;;;;;4957743;28;20043;-81
2021/11/02 09:12:46;;;;;;;33.30;21.17;;;7.50;99.90;;;;;;4956317;28;20035;-82
2021/11/02 09:15:13;;;;;;;36.53;22.02;;;7.60;99.90;;;;;;4957670;28;20470;-81
2021/11/02 09:17:47;;;;;;;40.60;22.15;;;7.50;99.90;;;;;;4957022;28;20101;-81
2021/11/02 09:20:17;;;;;;;35.70;22.85;;;7.60;99.90;;;;;;4941470;28;20363;-81
2021/11/02 09:22:44;;;;;;;30.38;20.27;;;7.70;99.90;;;;;;4956079;28;20064;-82
2021/11/02 09:25:10;;;;;;;34.30;21.65;;;7.70;99.90;;;;;;4974793;28;20046;-81
2021/11/02 09:27:40;;;;;;;33.00;21.63;;;7.70;99.90;;;;;;4956174;28;20043;-81
2021/11/02 09:30:08;;;;;;;36.83;22.38;;;7.70;99.90;;;;;;4957099;28;20043;-81
2021/11/02 09:32:36;;;;;;;35.63;22.55;;;7.80;99.90;;;;;;4956822;28;20101;-81
2021/11/02 09:35:02;;;;;;;31.30;20.25;;;7.80;99.90;;;;;;4957258;28;20485;-81
2021/11/02 09:37:36;;;;;;;30.67;20.45;;;7.90;99.90;;;;;;4956689;28;20520;-81
2021/11/02 09:40:40;;;;;;;31.10;19.52;;;7.90;99.90;;;;;;4956922;28;20086;-81
2021/11/02 09:43:54;;;;;;;30.17;19.08;;;7.90;99.90;;;;;;4955825;28;20105;-81
2021/11/02 09:47:02;;;;;;;28.10;18.70;;;8.00;99.90;;;;;;4940816;28;20050;-81
2021/11/02 09:49:43;;;;;;;24.40;16.63;;;8.10;99.90;;;;;;4936235;28;20051;-81
2021/11/02 09:52:34;;;;;;;31.30;17.73;;;8.10;99.90;;;;;;4940968;28;20093;-81
2021/11/02 09:55:37;;;;;;;26.98;18.65;;;8.00;99.90;;;;;;4957056;28;20058;-81
2021/11/02 09:58:40;;;;;;;26.60;18.23;;;8.10;99.90;;;;;;4955588;28;20051;-80
2021/11/02 10:01:06;;;;;;;25.95;17.48;;;8.20;99.90;;;;;;4951678;28;20042;-80
2021/11/02 10:03:43;;;;;;;22.05;16.88;;;8.20;99.90;;;;;;4975445;28;20045;-79
2021/11/02 10:06:29;;;;;;;24.02;16.52;;;8.40;99.90;;;;;;4975595;28;20062;-80
2021/11/02 10:09:17;;;;;;;27.35;15.38;;;8.50;99.90;;;;;;4959176;28;20046;-79
2021/11/02 10:12:01;;;;;;;24.02;16.65;;;8.50;99.90;;;;;;4963808;28;20047;-80
2021/11/02 10:15:01;;;;;;;21.70;16.70;;;8.50;99.90;;;;;;4956464;28;20046;-80
2021/11/02 10:17:41;;;;;;;25.30;17.35;;;8.50;99.90;;;;;;4955681;28;20053;-80
2021/11/02 10:20:20;;;;;;;24.02;16.35;;;8.60;99.90;;;;;;4956299;28;20073;-79
2021/11/02 10:23:13;;;;;;;22.98;15.95;;;8.60;99.90;;;;;;4956371;28;20084;-80
2021/11/02 10:26:03;;;;;;;21.00;15.15;;;8.70;99.90;;;;;;4955885;28;20097;-80
2021/11/02 10:29:01;;;;;;;22.42;15.13;;;8.70;99.90;;;;;;4939328;28;20464;-79
2021/11/02 10:31:44;;;;;;;21.45;14.45;;;8.70;99.90;;;;;;4955718;28;20081;-79
2021/11/02 10:34:12;;;;;;;20.40;14.45;;;8.70;99.90;;;;;;4956019;28;20057;-80
2021/11/02 10:37:01;;;;;;;23.55;14.00;;;8.60;99.90;;;;;;4955817;28;20126;-80
2021/11/02 10:39:40;;;;;;;20.33;13.88;;;8.60;99.90;;;;;;4956089;28;20049;-80
2021/11/02 10:42:43;;;;;;;21.45;13.35;;;8.60;99.90;;;;;;4954788;28;20347;-80
2021/11/02 10:45:11;;;;;;;20.02;13.93;;;8.50;99.90;;;;;;4955554;28;20065;-80
2021/11/02 10:47:45;;;;;;;23.50;16.40;;;8.40;99.90;;;;;;4955092;28;20117;-81
2021/11/02 10:50:12;;;;;;;22.58;14.80;;;8.50;99.90;;;;;;4955567;28;20042;-81
2021/11/02 10:52:40;;;;;;;19.52;15.02;;;8.60;99.90;;;;;;4955277;28;20038;-79
2021/11/02 10:55:34;;;;;;;25.23;15.93;;;8.60;99.90;;;;;;4955496;28;20042;-80
2021/11/02 10:58:32;;;;;;;21.38;15.43;;;8.70;99.90;;;;;;4954829;28;20505;-81
2021/11/02 11:01:01;;;;;;;19.63;15.05;;;8.80;99.90;;;;;;4955672;28;20391;-79
2021/11/02 11:03:29;;;;;;;16.92;13.95;;;9.00;99.90;;;;;;4939025;28;20038;-79
2021/11/02 11:06:01;;;;;;;20.23;14.75;;;8.90;99.90;;;;;;4939335;28;20087;-80
2021/11/02 11:08:32;;;;;;;19.92;14.00;;;9.10;99.90;;;;;;4955346;28;20051;-80
2021/11/02 11:11:00;;;;;;;20.75;14.95;;;9.20;99.90;;;;;;4955597;28;20038;-80
2021/11/02 11:13:28;;;;;;;21.48;15.48;;;9.20;99.90;;;;;;4938533;28;20478;-80
2021/11/02 11:16:10;;;;;;;24.20;14.05;;;9.20;99.90;;;;;;4939605;28;20133;-80
2021/11/02 11:19:19;;;;;;;21.17;15.02;;;9.30;99.90;;;;;;4939261;28;20042;-80
2021/11/02 11:21:44;;;;;;;19.02;14.25;;;9.30;99.90;;;;;;4939543;28;20453;-79
2021/11/02 11:24:18;;;;;;;16.95;13.68;;;9.20;99.90;;;;;;4955147;28;20154;-81
2021/11/02 11:26:52;;;;;;;18.70;14.93;;;9.20;99.90;;;;;;4954767;28;20434;-81
2021/11/02 11:29:29;;;;;;;20.00;15.82;;;9.30;99.90;;;;;;4954693;28;20513;-80
2021/11/02 11:31:57;;;;;;;22.98;16.35;;;9.20;99.90;;;;;;4955136;28;20141;-79
2021/11/02 11:34:31;;;;;;;19.85;16.30;;;9.30;99.90;;;;;;4955333;28;20072;-80
2021/11/02 11:37:01;;;;;;;26.25;16.60;;;9.30;99.90;;;;;;4954858;28;20105;-80
2021/11/02 11:39:31;;;;;;;20.27;15.75;;;9.30;99.90;;;;;;4955459;28;20113;-79
2021/11/02 11:41:58;;;;;;;23.92;16.63;;;9.30;99.90;;;;;;4954266;28;20510;-79
2021/11/02 11:44:25;;;;;;;18.95;15.10;;;9.50;99.90;;;;;;4955401;28;20066;-81
2021/11/02 11:47:07;;;;;;;20.80;15.30;;;9.50;99.90;;;;;;4942471;28;20059;-80
2021/11/02 11:49:35;;;;;;;18.58;15.25;;;9.60;99.90;;;;;;4959056;28;20046;-79
2021/11/02 11:52:03;;;;;;;21.60;15.95;;;9.80;99.90;;;;;;4958712;28;20039;-81
2021/11/02 11:54:49;;;;;;;25.40;14.43;;;10.00;99.90;;;;;;4958904;28;20133;-80
2021/11/02 11:57:45;;;;;;;18.17;13.38;;;10.10;99.90;;;;;;4958032;28;20098;-81
2021/11/02 12:00:16;;;;;;;16.38;12.73;;;10.20;99.90;;;;;;4866437;29;20415;-79
2021/11/02 12:02:48;;;;;;;20.02;13.05;;;10.20;99.90;;;;;;4881829;29;20062;-80
2021/11/02 12:05:18;;;;;;;21.50;12.57;;;10.10;99.90;;;;;;4897220;29;20120;-79
2021/11/02 12:08:03;;;;;;;16.63;12.70;;;10.10;99.90;;;;;;4897069;29;20045;-79
2021/11/02 12:10:30;;;;;;;15.30;11.88;;;10.00;99.90;;;;;;4881718;29;20072;-79
2021/11/02 12:13:00;;;;;;;17.55;12.20;;;10.00;99.90;;;;;;4896212;29;20556;-80
2021/11/02 12:15:38;;;;;;;17.15;12.73;;;9.90;99.90;;;;;;4897457;29;20052;-81
2021/11/02 12:18:07;;;;;;;14.15;11.50;;;9.90;99.90;;;;;;4896685;29;20068;-80
2021/11/02 12:20:36;;;;;;;16.75;11.48;;;9.90;99.90;;;;;;4881790;29;20426;-79
2021/11/02 12:23:17;;;;;;;14.60;10.77;;;9.80;99.90;;;;;;4865696;29;20055;-79
2021/11/02 12:25:54;;;;;;;16.92;11.90;;;9.80;99.90;;;;;;4896671;29;20565;-79
2021/11/02 12:28:42;;;;;;;16.95;11.40;;;9.80;99.90;;;;;;4880137;29;20048;-79
2021/11/02 12:31:10;;;;;;;15.38;11.70;;;9.80;99.90;;;;;;4881641;29;20412;-79
2021/11/02 12:33:38;;;;;;;14.90;10.52;;;9.80;99.90;;;;;;4880910;29;20139;-79
2021/11/02 12:36:05;;;;;;;15.93;11.00;;;9.80;99.90;;;;;;4883159;29;20394;-79
2021/11/02 12:38:42;;;;;;;18.17;10.68;;;9.80;99.90;;;;;;4938363;29;20509;-80
2021/11/02 12:41:22;;;;;;;16.63;11.13;;;9.80;99.90;;;;;;4957579;28;20069;-79
2021/11/02 12:44:14;;;;;;;14.98;10.77;;;9.70;99.90;;;;;;4957282;28;20428;-80
2021/11/02 12:46:44;;;;;;;17.75;10.68;;;9.70;99.90;;;;;;4957027;28;20080;-79
2021/11/02 12:49:14;;;;;;;17.45;10.98;;;9.70;99.90;;;;;;4941694;28;20130;-79
2021/11/02 12:51:45;;;;;;;14.70;10.25;;;9.70;99.90;;;;;;4957644;28;20370;-79
2021/11/02 12:54:13;;;;;;;15.55;10.02;;;9.60;99.90;;;;;;4941381;28;20042;-79
2021/11/02 12:56:41;;;;;;;14.40;9.85;;;9.60;99.90;;;;;;4957310;28;20506;-79
2021/11/02 12:59:21;;;;;;;15.60;9.95;;;9.60;99.90;;;;;;4956886;28;20055;-80
2021/11/02 13:01:49;;;;;;;15.63;9.95;;;9.60;99.90;;;;;;4956993;28;20051;-79
2021/11/02 13:04:17;;;;;;;13.38;9.68;;;9.60;99.90;;;;;;4957416;28;20109;-80
2021/11/02 13:06:51;;;;;;;12.90;9.82;;;9.60;99.90;;;;;;4957050;28;20058;-79
2021/11/02 13:09:33;;;;;;;14.40;8.90;;;9.50;99.90;;;;;;4956861;28;20343;-79
2021/11/02 13:12:03;;;;;;;14.60;8.90;;;9.50;99.90;;;;;;4956215;28;20435;-79
2021/11/02 13:14:40;;;;;;;13.40;8.18;;;9.60;99.90;;;;;;4957299;28;20232;-80
2021/11/02 13:17:09;;;;;;;11.65;8.48;;;9.60;99.90;;;;;;4972763;28;20058;-80
2021/11/02 13:19:49;;;;;;;10.88;7.63;;;9.50;99.90;;;;;;4959076;28;20042;-79
2021/11/02 13:22:18;;;;;;;13.02;7.68;;;9.50;99.90;;;;;;4976086;28;20057;-79
2021/11/02 13:25:00;;;;;;;12.57;8.15;;;9.50;99.90;;;;;;4976131;28;20046;-79
2021/11/02 13:27:34;;;;;;;11.23;7.88;;;9.50;99.90;;;;;;4974978;28;20039;-80
2021/11/02 13:30:23;;;;;;;10.43;7.80;;;9.40;99.90;;;;;;4960108;28;20038;-80
2021/11/02 13:33:01;;;;;;;9.57;8.05;;;9.50;99.90;;;;;;4975616;28;20042;-80
2021/11/02 13:35:50;;;;;;;12.38;7.78;;;9.60;99.90;;;;;;4960217;28;20050;-79
2021/11/02 13:38:23;;;;;;;10.18;7.43;;;9.60;99.90;;;;;;4975748;28;20093;-79
2021/11/02 13:40:50;;;;;;;12.50;7.70;;;9.60;99.90;;;;;;4959149;28;20117;-79
2021/11/02 13:43:34;;;;;;;12.50;7.90;;;9.70;99.90;;;;;;4955902;28;20047;-79
2021/11/02 13:46:01;;;;;;;12.77;7.90;;;9.70;99.90;;;;;;4940484;28;20047;-79
2021/11/02 13:48:29;;;;;;;11.30;7.93;;;9.80;99.90;;;;;;4955977;28;20035;-79
2021/11/02 13:50:56;;;;;;;17.15;8.35;;;9.80;99.90;;;;;;4956733;28;20039;-79
2021/11/02 13:53:23;;;;;;;15.25;7.22;;;9.90;99.90;;;;;;4956539;28;20485;-79
2021/11/02 13:55:50;;;;;;;12.73;7.40;;;9.90;99.90;;;;;;4956331;28;20129;-80
2021/11/02 13:58:16;;;;;;;11.77;7.30;;;10.10;99.90;;;;;;4939218;28;20050;-79
2021/11/02 14:00:44;;;;;;;12.98;7.70;;;10.30;99.90;;;;;;4956548;28;20050;-78
2021/11/02 14:03:14;;;;;;;9.48;7.28;;;10.20;99.90;;;;;;4955978;28;20532;-80
2021/11/02 14:05:43;;;;;;;13.27;6.80;;;10.30;99.90;;;;;;4955921;28;20059;-79
2021/11/02 14:08:09;;;;;;;9.38;6.75;;;10.30;99.90;;;;;;4984309;28;20046;-80
2021/11/02 14:10:35;;;;;;;11.82;7.35;;;10.30;99.90;;;;;;4975439;28;20120;-79
2021/11/02 14:13:01;;;;;;;11.68;7.47;;;10.30;99.90;;;;;;4974546;28;20042;-78
2021/11/02 14:15:29;;;;;;;12.73;7.47;;;10.40;99.90;;;;;;4975372;28;20418;-78
2021/11/02 14:18:00;;;;;;;12.73;7.20;;;10.50;99.90;;;;;;4974863;28;20038;-79
2021/11/02 14:20:51;;;;;;;9.68;7.35;;;10.40;99.90;;;;;;4975255;28;20050;-80
2021/11/02 14:23:41;;;;;;;11.85;7.47;;;10.20;99.90;;;;;;4991505;28;20101;-79
2021/11/02 14:26:35;;;;;;;12.98;7.35;;;10.20;99.90;;;;;;4958940;28;20050;-80
2021/11/02 14:29:07;;;;;;;11.57;7.30;;;10.20;99.90;;;;;;4991949;28;20117;-79
2021/11/02 14:31:37;;;;;;;11.55;7.15;;;10.10;99.90;;;;;;4975281;28;20400;-78
2021/11/02 14:34:07;;;;;;;13.30;7.40;;;10.10;99.90;;;;;;4958780;28;20170;-79
2021/11/02 14:36:40;;;;;;;9.60;7.25;;;10.00;99.90;;;;;;4974834;28;20034;-79
2021/11/02 14:39:08;;;;;;;12.00;7.32;;;10.00;99.90;;;;;;4955409;28;20584;-79
2021/11/02 14:41:36;;;;;;;14.90;7.75;;;9.90;99.90;;;;;;4955851;28;20046;-79
2021/11/02 14:44:16;;;;;;;11.27;7.28;;;10.00;99.90;;;;;;4954629;28;20478;-80
2021/11/02 14:46:49;;;;;;;11.85;8.10;;;9.90;99.90;;;;;;4939365;28;20051;-79
2021/11/02 14:49:27;;;;;;;11.98;7.32;;;9.90;99.90;;;;;;4939717;28;20048;-79
2021/11/02 14:52:07;;;;;;;10.85;7.07;;;9.80;99.90;;;;;;4955588;28;20042;-79
2021/11/02 14:54:38;;;;;;;12.32;7.60;;;9.80;99.90;;;;;;4939656;28;20061;-80
2021/11/02 14:57:19;;;;;;;13.90;8.07;;;9.80;99.90;;;;;;4954141;28;20059;-80
2021/11/02 14:59:54;;;;;;;9.65;7.75;;;9.80;99.90;;;;;;4939704;28;20096;-79
2021/11/02 15:02:34;;;;;;;11.25;8.07;;;9.80;99.90;;;;;;4972544;28;20047;-79
2021/11/02 15:05:06;;;;;;;11.23;7.60;;;9.80;99.90;;;;;;4938828;28;20137;-79
2021/11/02 15:07:43;;;;;;;10.50;7.75;;;9.80;99.90;;;;;;4954889;28;20055;-79
2021/11/02 15:10:12;;;;;;;15.90;7.95;;;9.70;99.90;;;;;;4955256;28;20101;-80
2021/11/02 15:12:38;;;;;;;12.50;8.13;;;9.70;99.90;;;;;;4954095;28;20043;-79
2021/11/02 15:15:05;;;;;;;14.93;8.98;;;9.60;99.90;;;;;;4939513;28;20114;-80
2021/11/02 15:17:34;;;;;;;14.68;8.80;;;9.50;99.90;;;;;;4954803;28;20409;-79
2021/11/02 15:20:00;;;;;;;12.00;8.80;;;9.50;99.90;;;;;;4924601;28;20397;-79
2021/11/02 15:22:26;;;;;;;12.50;9.10;;;9.40;99.90;;;;;;4943276;28;20200;-79
2021/11/02 15:25:02;;;;;;;12.00;9.18;;;9.40;99.90;;;;;;4959154;28;20114;-80
2021/11/02 15:27:34;;;;;;;12.88;8.93;;;9.40;99.90;;;;;;4942166;28;20155;-78
2021/11/02 15:30:14;;;;;;;13.63;8.25;;;9.40;99.90;;;;;;4959066;28;20466;-79
2021/11/02 15:32:45;;;;;;;15.98;9.48;;;9.30;99.90;;;;;;4958955;28;20150;-79
2021/11/02 15:35:13;;;;;;;13.07;9.10;;;9.30;99.90;;;;;;4959185;28;20150;-79
2021/11/02 15:37:42;;;;;;;12.00;8.77;;;9.40;99.90;;;;;;4958714;28;20054;-80
2021/11/02 15:40:18;;;;;;;12.02;9.15;;;9.20;99.90;;;;;;4942995;28;20121;-79
2021/11/02 15:42:49;;;;;;;12.52;9.13;;;9.20;99.90;;;;;;4941610;28;20043;-79
2021/11/02 15:45:30;;;;;;;13.45;8.68;;;9.20;99.90;;;;;;4959170;28;20135;-79
2021/11/02 15:48:03;;;;;;;12.38;8.77;;;9.10;99.90;;;;;;4958503;28;20055;-80
2021/11/02 15:50:29;;;;;;;12.60;8.93;;;9.10;99.90;;;;;;4959061;28;20035;-79
2021/11/02 15:53:00;;;;;;;13.43;8.65;;;9.10;99.90;;;;;;4958794;28;20034;-81
2021/11/02 15:55:27;;;;;;;12.50;8.73;;;9.10;99.90;;;;;;4958748;28;20066;-79
2021/11/02 15:57:56;;;;;;;12.68;8.95;;;9.00;99.90;;;;;;4957937;28;20494;-82
2021/11/02 16:00:43;;;;;;;17.83;9.48;;;9.00;99.90;;;;;;4958850;28;20485;-82
2021/11/02 16:03:09;;;;;;;16.80;9.75;;;9.00;99.90;;;;;;4942466;28;20055;-82
2021/11/02 16:05:37;;;;;;;17.55;9.18;;;9.10;99.90;;;;;;4958594;28;20041;-82
2021/11/02 16:08:17;;;;;;;11.90;9.15;;;8.90;99.90;;;;;;4942801;28;20043;-79
2021/11/02 16:10:53;;;;;;;18.92;9.43;;;8.90;99.90;;;;;;4976095;28;20674;-80
2021/11/02 16:13:26;;;;;;;11.90;9.52;;;8.90;99.90;;;;;;4926704;28;20043;-80
2021/11/02 16:15:54;;;;;;;14.30;9.77;;;8.80;99.90;;;;;;4958640;28;20169;-80
2021/11/02 16:18:24;;;;;;;14.63;10.43;;;8.90;99.90;;;;;;4942216;28;20094;-80
2021/11/02 16:20:57;;;;;;;13.48;10.25;;;9.10;99.90;;;;;;4942743;28;20049;-80
2021/11/02 16:23:24;;;;;;;20.55;11.10;;;8.80;99.90;;;;;;4958210;28;20042;-79
2021/11/02 16:25:55;;;;;;;14.20;10.73;;;8.80;99.90;;;;;;4958255;28;20066;-80
2021/11/02 16:28:24;;;;;;;14.38;10.80;;;8.80;99.90;;;;;;4957337;28;20474;-80
2021/11/02 16:30:54;;;;;;;17.15;11.35;;;8.70;99.90;;;;;;4942059;28;20609;-79
2021/11/02 16:33:35;;;;;;;18.10;12.23;;;8.70;99.90;;;;;;4957864;28;20138;-80
2021/11/02 16:36:28;;;;;;;20.63;12.88;;;8.70;99.90;;;;;;4958519;28;20452;-79
2021/11/02 16:38:58;;;;;;;19.40;12.75;;;8.60;99.90;;;;;;4859454;29;20193;-80
2021/11/02 16:41:51;;;;;;;16.10;12.07;;;8.60;99.90;;;;;;4843870;29;20058;-79
2021/11/02 16:44:30;;;;;;;22.48;15.02;;;8.50;99.90;;;;;;4840265;29;20069;-76
2021/11/02 16:47:12;;;;;;;15.98;13.52;;;8.40;99.90;;;;;;4854685;29;20046;-76
2021/11/02 16:49:39;;;;;;;23.40;16.33;;;8.40;99.90;;;;;;4843928;29;20152;-77
2021/11/02 16:52:11;;;;;;;24.48;17.58;;;8.40;99.90;;;;;;4843642;29;20042;-76
2021/11/02 16:54:45;;;;;;;20.90;15.63;;;8.30;99.90;;;;;;4843741;29;20053;-76
2021/11/02 16:57:22;;;;;;;20.00;15.25;;;8.30;99.90;;;;;;4840914;29;20080;-81
2021/11/02 17:00:10;;;;;;;17.55;14.18;;;8.50;99.90;;;;;;4825496;29;20106;-80
2021/11/02 17:03:05;;;;;;;17.13;13.27;;;8.40;99.90;;;;;;4824818;29;20084;-80
2021/11/02 17:05:36;;;;;;;20.73;13.05;;;8.40;99.90;;;;;;4825121;29;20038;-79
2021/11/02 17:08:02;;;;;;;18.27;13.02;;;8.40;99.90;;;;;;4825149;29;20077;-79
2021/11/02 17:10:34;;;;;;;19.35;12.70;;;8.20;99.90;;;;;;4840980;29;20054;-79
2021/11/02 17:13:29;;;;;;;16.35;12.35;;;8.30;99.90;;;;;;4823998;29;20094;-79
2021/11/02 17:16:15;;;;;;;16.88;12.35;;;8.30;99.90;;;;;;4848714;29;20411;-80
2021/11/02 17:18:56;;;;;;;18.70;12.75;;;8.30;99.90;;;;;;4899059;29;20048;-79
2021/11/02 17:21:32;;;;;;;19.17;12.93;;;8.30;99.90;;;;;;4922928;29;20466;-80
2021/11/02 17:24:00;;;;;;;20.33;13.18;;;8.30;99.90;;;;;;4937861;29;20122;-79
2021/11/02 17:26:28;;;;;;;15.07;12.25;;;8.20;99.90;;;;;;4953964;29;20051;-79
2021/11/02 17:28:55;;;;;;;19.30;12.90;;;8.30;99.90;;;;;;4932281;28;20151;-80
2021/11/02 17:31:24;;;;;;;17.75;13.50;;;8.40;99.90;;;;;;4976091;28;20081;-80
2021/11/02 17:33:52;;;;;;;18.70;14.38;;;8.30;99.90;;;;;;4976211;28;20078;-79
2021/11/02 17:36:21;;;;;;;18.95;14.05;;;8.30;99.90;;;;;;4976088;28;20050;-79
2021/11/02 17:38:48;;;;;;;19.00;13.50;;;8.30;99.90;;;;;;4959668;28;20461;-79
2021/11/02 17:41:14;;;;;;;16.98;13.43;;;8.30;99.90;;;;;;4975826;28;20044;-79
2021/11/02 17:43:42;;;;;;;15.75;12.80;;;8.40;99.90;;;;;;4973890;28;20042;-79
2021/11/02 17:46:09;;;;;;;20.13;14.75;;;8.30;99.90;;;;;;4967492;28;20545;-79
2021/11/02 17:48:36;;;;;;;20.27;13.93;;;8.30;99.90;;;;;;4939911;28;20506;-79
2021/11/02 17:51:02;;;;;;;18.42;12.73;;;8.30;99.90;;;;;;4956558;28;20134;-79
2021/11/02 17:53:28;;;;;;;17.60;12.70;;;8.30;99.90;;;;;;4956149;28;20556;-79
2021/11/02 17:55:56;;;;;;;18.83;12.60;;;8.30;99.90;;;;;;4940494;28;20510;-79
2021/11/02 17:58:24;;;;;;;17.40;12.77;;;8.30;99.90;;;;;;4939201;28;20070;-79
2021/11/02 18:00:52;;;;;;;16.50;12.35;;;8.30;99.90;;;;;;4940366;28;20057;-80
2021/11/02 18:03:19;;;;;;;16.23;12.20;;;8.60;99.90;;;;;;4955700;28;20109;-79
2021/11/02 18:05:48;;;;;;;14.30;11.70;;;8.30;99.90;;;;;;4939984;28;20196;-79
2021/11/02 18:08:14;;;;;;;15.60;11.55;;;8.40;99.90;;;;;;4955756;28;20043;-80
2021/11/02 18:10:40;;;;;;;14.77;11.32;;;8.30;99.90;;;;;;4955961;28;20042;-80